Time;durP1;ratioP1;P1;durP2;ratioP2;P2;SDS_P1;SDS_P2;PMS_P1;PMS_P2;Temp;Humidity;BMP_temperature;BMP_pressure;BME280_temperature;BME280_humidity;BME280_pressure;Samples;Min_cycle;Max_cycle;Signal;HPM_P1;HPM_P2
2022/03/07 00:00:40;;;;;;;;;14.00;14.00;;;;;21.52;43.93;101533.18;112571;1245;19047;-85
2022/03/07 00:03:07;;;;;;;;;18.00;17.00;;;;;21.51;43.99;101535.14;112585;1244;21692;-85
2022/03/07 00:05:33;;;;;;;;;17.00;16.00;;;;;21.51;44.17;101533.09;112444;1245;21370;-87
2022/03/07 00:07:59;;;;;;;;;13.00;12.33;;;;;21.50;44.00;101534.45;112926;1244;19390;-85
2022/03/07 00:10:25;;;;;;;;;16.00;14.00;;;;;21.51;43.95;101528.96;112798;1244;19280;-85
2022/03/07 00:12:51;;;;;;;;;15.00;14.00;;;;;21.52;43.93;101526.08;112624;1244;20339;-84
2022/03/07 00:15:17;;;;;;;;;17.00;16.00;;;;;21.51;43.90;101520.55;112626;1244;19793;-85
2022/03/07 00:17:43;;;;;;;;;15.00;14.00;;;;;21.51;43.90;101523.63;112595;1244;19454;-87
2022/03/07 00:20:09;;;;;;;;;12.50;12.50;;;;;21.51;43.99;101521.34;112620;1244;24599;-85
2022/03/07 00:22:35;;;;;;;;;17.50;15.00;;;;;21.48;43.84;101515.29;112435;1245;19282;-85
2022/03/07 00:25:01;;;;;;;;;13.50;13.50;;;;;21.49;43.79;101517.30;112437;1246;19268;-85
2022/03/07 00:27:27;;;;;;;;;17.50;17.00;;;;;21.49;43.77;101518.39;112425;1246;21784;-86
2022/03/07 00:29:53;;;;;;;;;14.00;13.50;;;;;21.48;43.73;101516.42;112450;1246;21647;-86
2022/03/07 00:32:18;;;;;;;;;14.00;13.50;;;;;21.48;43.73;101520.00;112359;1245;20281;-85
2022/03/07 00:34:44;;;;;;;;;16.00;14.00;;;;;21.48;43.91;101524.50;112902;1245;20034;-83
2022/03/07 00:37:10;;;;;;;;;16.50;16.50;;;;;21.50;43.67;101530.91;112431;1244;19176;-84
2022/03/07 00:39:36;;;;;;;;;13.00;12.00;;;;;21.50;43.66;101528.32;112566;1245;22182;-85
2022/03/07 00:42:02;;;;;;;;;16.00;15.00;;;;;21.50;43.72;101527.36;112604;1245;20437;-85
2022/03/07 00:44:28;;;;;;;;;14.00;12.50;;;;;21.50;43.89;101527.27;112601;1244;18988;-83
2022/03/07 00:46:54;;;;;;;;;17.50;14.00;;;;;21.49;43.63;101519.83;112437;1245;19215;-84
2022/03/07 00:49:20;;;;;;;;;16.50;13.50;;;;;21.49;43.69;101519.48;112601;1245;20435;-87
2022/03/07 00:51:46;;;;;;;;;15.00;13.00;;;;;21.49;43.72;101518.80;112577;1244;23210;-85
2022/03/07 00:54:12;;;;;;;;;14.00;13.50;;;;;21.49;43.71;101514.91;112607;1245;23681;-85
2022/03/07 00:56:37;;;;;;;;;13.00;13.00;;;;;21.49;43.42;101512.05;112615;1244;20176;-84
2022/03/07 00:59:03;;;;;;;;;18.00;14.00;;;;;21.49;43.64;101508.38;112625;1245;19056;-85
2022/03/07 01:01:29;;;;;;;;;16.50;14.00;;;;;21.49;43.56;101511.48;112601;1244;19258;-84
2022/03/07 01:03:55;;;;;;;;;17.50;17.00;;;;;21.51;43.51;101513.52;112497;1245;21487;-85
2022/03/07 01:06:22;;;;;;;;;20.00;17.00;;;;;21.51;43.37;101518.20;112629;1244;19028;-85
2022/03/07 01:08:48;;;;;;;;;23.33;16.00;;;;;21.50;43.41;101511.17;112239;1244;511725;-85
2022/03/07 01:11:14;;;;;;;;;15.00;14.00;;;;;21.50;43.36;101507.96;112623;1245;21657;-85
2022/03/07 01:13:40;;;;;;;;;14.00;13.00;;;;;21.50;43.56;101506.66;112831;1244;19081;-85
2022/03/07 01:16:06;;;;;;;;;16.00;16.00;;;;;21.50;43.45;101503.46;112848;1245;19212;-84
2022/03/07 01:18:32;;;;;;;;;18.00;16.00;;;;;21.49;43.45;101498.92;112620;1245;23622;-84
2022/03/07 01:20:58;;;;;;;;;13.00;12.00;;;;;21.49;43.21;101500.22;112628;1245;19721;-84
2022/03/07 01:23:24;;;;;;;;;18.00;17.00;;;;;21.49;43.47;101492.83;112681;1245;22083;-84
2022/03/07 01:25:50;;;;;;;;;16.50;14.00;;;;;21.49;43.27;101499.52;112595;1245;23559;-85
2022/03/07 01:28:16;;;;;;;;;13.00;13.00;;;;;21.49;43.44;101493.17;112668;1245;19074;-85
2022/03/07 01:30:42;;;;;;;;;16.00;14.00;;;;;21.47;43.30;101490.06;112678;1244;20668;-85
2022/03/07 01:33:08;;;;;;;;;14.00;13.50;;;;;21.47;43.26;101489.17;112625;1245;23380;-84
2022/03/07 01:35:33;;;;;;;;;16.50;14.00;;;;;21.47;43.30;101487.02;112679;1245;20184;-84
2022/03/07 01:37:59;;;;;;;;;17.00;13.00;;;;;21.47;43.17;101485.75;112635;1245;23694;-84
2022/03/07 01:40:25;;;;;;;;;15.00;13.00;;;;;21.49;43.34;101485.70;112668;1244;20159;-84
2022/03/07 01:42:51;;;;;;;;;14.00;14.00;;;;;21.48;43.16;101482.40;112513;1244;22189;-83
2022/03/07 01:45:17;;;;;;;;;12.00;12.00;;;;;21.47;43.34;101481.14;112717;1245;21810;-84
2022/03/07 01:47:43;;;;;;;;;16.00;13.00;;;;;21.47;43.28;101479.38;112664;1245;19994;-84
2022/03/07 01:50:28;;;;;;;;;15.33;13.67;;;;;21.48;43.24;101482.73;112646;1245;19438;-86
2022/03/07 01:52:54;;;;;;;;;13.00;13.00;;;;;21.48;43.20;101474.02;112627;1245;20655;-84
2022/03/07 01:55:20;;;;;;;;;14.00;13.33;;;;;21.47;43.06;101470.83;112629;1245;20615;-84
2022/03/07 01:57:46;;;;;;;;;15.00;14.00;;;;;21.47;43.24;101468.67;112626;1245;18925;-84
2022/03/07 02:00:12;;;;;;;;;13.50;13.50;;;;;21.47;43.19;101465.54;112662;1244;23764;-85
2022/03/07 02:02:37;;;;;;;;;17.50;16.00;;;;;21.46;43.12;101457.08;112657;1245;19936;-84
2022/03/07 02:05:03;;;;;;;;;14.00;13.00;;;;;21.46;43.24;101454.16;112658;1244;19258;-84
2022/03/07 02:07:29;;;;;;;;;14.00;13.00;;;;;21.46;42.99;101451.24;112661;1244;22944;-85
2022/03/07 02:09:55;;;;;;;;;16.00;13.00;;;;;21.47;43.20;101449.42;112625;1245;20043;-84
2022/03/07 02:12:21;;;;;;;;;18.00;16.00;;;;;21.47;42.99;101448.29;112676;1245;19893;-85
2022/03/07 02:14:47;;;;;;;;;16.00;16.00;;;;;21.45;43.09;101441.86;112652;1245;24307;-83
2022/03/07 02:17:13;;;;;;;;;17.00;13.50;;;;;21.45;43.14;101441.73;112625;1245;23217;-85
2022/03/07 02:19:39;;;;;;;;;18.00;13.00;;;;;21.45;43.15;101443.33;112708;1245;19120;-85
2022/03/07 02:22:05;;;;;;;;;14.00;14.00;;;;;21.45;43.03;101439.75;112620;1245;19273;-85
2022/03/07 02:24:31;;;;;;;;;14.00;13.33;;;;;21.44;42.96;101438.95;112631;1245;20830;-85
2022/03/07 02:26:57;;;;;;;;;16.00;13.00;;;;;21.44;43.14;101437.70;112617;1245;23451;-85
2022/03/07 02:29:22;;;;;;;;;15.00;13.00;;;;;21.44;43.05;101439.10;112611;1244;19293;-85
2022/03/07 02:31:48;;;;;;;;;16.50;15.00;;;;;21.45;43.13;101435.96;112630;1245;19932;-85
2022/03/07 02:34:14;;;;;;;;;13.00;11.00;;;;;21.44;42.84;101436.75;112651;1244;22484;-85
2022/03/07 02:36:40;;;;;;;;;16.00;13.00;;;;;21.43;43.04;101433.27;112711;1244;19320;-84
2022/03/07 02:39:06;;;;;;;;;16.00;16.00;;;;;21.43;43.03;101435.29;112656;1244;23372;-85
2022/03/07 02:41:32;;;;;;;;;14.00;13.00;;;;;21.42;42.74;101436.89;112640;1245;19572;-85
2022/03/07 02:43:58;;;;;;;;;16.00;13.00;;;;;21.42;42.91;101438.11;112635;1245;19215;-85
2022/03/07 02:46:24;;;;;;;;;16.00;13.00;;;;;21.42;42.99;101437.95;112607;1245;19976;-84
2022/03/07 02:48:50;;;;;;;;;12.00;12.00;;;;;21.42;42.99;101435.19;112632;1245;19121;-85
2022/03/07 02:51:16;;;;;;;;;12.50;12.00;;;;;21.41;42.79;101435.45;112659;1245;20780;-85
2022/03/07 02:53:41;;;;;;;;;16.00;14.00;;;;;21.41;42.68;101433.27;112637;1244;22802;-84
2022/03/07 02:56:07;;;;;;;;;17.50;16.00;;;;;21.42;42.81;101432.87;112612;1245;21091;-84
2022/03/07 02:58:33;;;;;;;;;13.00;12.50;;;;;21.42;42.87;101436.41;112641;1245;19348;-84
2022/03/07 03:00:59;;;;;;;;;14.00;13.00;;;;;21.41;42.66;101435.08;112611;1244;20011;-84
2022/03/07 03:03:25;;;;;;;;;14.00;13.00;;;;;21.42;42.63;101432.93;112638;1245;19455;-83
2022/03/07 03:05:54;;;;;;;;;14.33;12.67;;;;;21.42;42.86;101433.41;112659;1244;19430;-84
2022/03/07 03:08:20;;;;;;;;;14.33;13.00;;;;;21.42;42.85;101432.26;112617;1245;20867;-86
2022/03/07 03:10:46;;;;;;;;;13.67;12.33;;;;;21.43;42.75;101427.11;112635;1244;19171;-84
2022/03/07 03:13:12;;;;;;;;;13.00;13.00;;;;;21.43;42.72;101432.92;112639;1245;19756;-84
2022/03/07 03:15:38;;;;;;;;;16.00;13.50;;;;;21.43;42.58;101435.77;112643;1245;21428;-85
2022/03/07 03:18:04;;;;;;;;;16.50;13.50;;;;;21.45;42.61;101439.07;112627;1245;19204;-84
2022/03/07 03:20:30;;;;;;;;;13.00;12.67;;;;;21.44;42.63;101443.53;112635;1245;21259;-83
2022/03/07 03:22:56;;;;;;;;;14.00;12.50;;;;;21.44;42.60;101446.40;112626;1244;20058;-85
2022/03/07 03:25:22;;;;;;;;;13.50;13.00;;;;;21.44;42.52;101445.14;112638;1245;22973;-83
2022/03/07 03:27:48;;;;;;;;;16.00;13.00;;;;;21.44;42.63;101446.61;112648;1245;19262;-86
2022/03/07 03:30:14;;;;;;;;;17.00;16.00;;;;;21.44;42.67;101447.73;112647;1244;20151;-85
2022/03/07 03:32:40;;;;;;;;;14.00;14.00;;;;;21.44;42.78;101446.64;112645;1245;19408;-84
2022/03/07 03:35:06;;;;;;;;;16.33;13.00;;;;;21.44;42.64;101448.27;112663;1245;19621;-86
2022/03/07 03:37:32;;;;;;;;;16.33;13.33;;;;;21.43;42.49;101447.42;112720;1244;20226;-85
2022/03/07 03:39:58;;;;;;;;;14.00;13.00;;;;;21.44;42.51;101453.73;112627;1245;19227;-85
2022/03/07 03:42:24;;;;;;;;;14.00;13.00;;;;;21.44;42.56;101453.35;112641;1245;19274;-86
2022/03/07 03:44:50;;;;;;;;;13.33;12.33;;;;;21.43;42.38;101451.61;112639;1244;20760;-84
2022/03/07 03:47:15;;;;;;;;;12.00;12.00;;;;;21.43;42.43;101451.08;112641;1245;19933;-84
2022/03/07 03:49:41;;;;;;;;;17.00;16.00;;;;;21.42;42.62;101450.66;112665;1245;19803;-84
2022/03/07 03:52:07;;;;;;;;;13.00;13.00;;;;;21.43;42.47;101451.45;112680;1245;22504;-86
2022/03/07 03:54:33;;;;;;;;;17.00;14.00;;;;;21.43;42.43;101452.50;112652;1245;19024;-85
2022/03/07 03:56:59;;;;;;;;;14.00;13.00;;;;;21.42;42.43;101448.28;112626;1245;20250;-84
2022/03/07 03:59:25;;;;;;;;;14.00;13.00;;;;;21.42;42.45;101444.32;112608;1244;21434;-84
2022/03/07 04:01:51;;;;;;;;;16.50;13.50;;;;;21.41;42.23;101438.73;112614;1245;22575;-85
2022/03/07 04:04:17;;;;;;;;;13.00;12.00;;;;;21.42;42.46;101440.13;112660;1244;19294;-84
2022/03/07 04:06:43;;;;;;;;;16.00;14.00;;;;;21.42;42.31;101440.27;112643;1245;20160;-84
2022/03/07 04:09:08;;;;;;;;;12.00;12.00;;;;;21.43;42.30;101439.85;112650;1245;22266;-84
2022/03/07 04:11:34;;;;;;;;;13.00;13.00;;;;;21.42;42.42;101437.33;112594;1244;19651;-84
2022/03/07 04:14:00;;;;;;;;;15.00;15.00;;;;;21.42;42.45;101435.66;112713;1245;19954;-84
2022/03/07 04:16:26;;;;;;;;;17.00;14.00;;;;;21.42;42.43;101436.41;112707;1244;19899;-84
2022/03/07 04:18:52;;;;;;;;;13.50;12.00;;;;;21.42;42.36;101434.81;112639;1245;19307;-83
2022/03/07 04:21:19;;;;;;;;;15.00;14.00;;;;;21.43;42.34;101431.85;112675;1245;22427;-83
2022/03/07 04:23:45;;;;;;;;;16.33;13.00;;;;;21.42;42.37;101434.23;112599;1245;19557;-84
2022/03/07 04:26:11;;;;;;;;;16.00;14.00;;;;;21.42;42.40;101426.05;112616;1245;19261;-83
2022/03/07 04:28:37;;;;;;;;;13.00;11.00;;;;;21.43;42.30;101428.88;112628;1245;22229;-84
2022/03/07 04:31:02;;;;;;;;;16.00;14.00;;;;;21.41;42.51;101423.80;112638;1245;19912;-86
2022/03/07 04:33:28;;;;;;;;;13.00;13.00;;;;;21.40;42.30;101420.98;112664;1245;20135;-84
2022/03/07 04:35:54;;;;;;;;;17.50;17.00;;;;;21.40;42.47;101415.53;112650;1245;20042;-86
2022/03/07 04:38:24;;;;;;;;;20.00;16.00;;;;;21.42;42.25;101415.58;112640;1245;19397;-86
2022/03/07 04:40:50;;;;;;;;;18.33;14.67;;;;;21.41;42.35;101419.50;112618;1245;19561;-83
2022/03/07 04:43:16;;;;;;;;;18.00;17.50;;;;;21.41;42.51;101415.09;112601;1245;21392;-84
2022/03/07 04:45:42;;;;;;;;;15.00;13.50;;;;;21.40;42.30;101417.89;112664;1244;19595;-84
2022/03/07 04:48:08;;;;;;;;;14.00;12.50;;;;;21.40;42.21;101425.01;112610;1244;19347;-84
2022/03/07 04:50:34;;;;;;;;;13.50;13.00;;;;;21.39;42.39;101425.98;112621;1244;19952;-84
2022/03/07 04:52:59;;;;;;;;;18.00;16.00;;;;;21.39;42.12;101422.07;112620;1244;19018;-84
2022/03/07 04:55:25;;;;;;;;;13.00;13.00;;;;;21.40;42.24;101429.61;112668;1245;19287;-84
2022/03/07 04:57:51;;;;;;;;;21.50;15.00;;;;;21.40;42.39;101432.79;112704;1244;20985;-84
2022/03/07 05:00:17;;;;;;;;;13.00;12.50;;;;;21.40;42.31;101428.69;112629;1244;19113;-84
2022/03/07 05:02:43;;;;;;;;;14.00;13.00;;;;;21.40;42.14;101423.98;112622;1245;19278;-84
2022/03/07 05:05:09;;;;;;;;;18.00;16.50;;;;;21.39;42.05;101422.77;112638;1245;20017;-84
2022/03/07 05:07:35;;;;;;;;;14.00;13.00;;;;;21.38;42.06;101424.90;112629;1245;23856;-84
2022/03/07 05:10:01;;;;;;;;;14.00;13.00;;;;;21.38;42.03;101420.66;112634;1245;19324;-84
2022/03/07 05:12:26;;;;;;;;;14.00;13.00;;;;;21.39;42.18;101422.04;112646;1245;21414;-84
2022/03/07 05:14:52;;;;;;;;;18.50;14.00;;;;;21.39;42.06;101422.02;112603;1244;20919;-83
2022/03/07 05:17:18;;;;;;;;;14.00;14.00;;;;;21.39;42.28;101421.19;112715;1245;19603;-84
2022/03/07 05:19:47;;;;;;;;;17.00;16.00;;;;;21.38;42.10;101414.16;112709;1245;24097;-84
2022/03/07 05:22:13;;;;;;;;;14.00;14.00;;;;;21.38;42.36;101411.42;112593;1244;19268;-84
2022/03/07 05:24:39;;;;;;;;;14.00;13.00;;;;;21.38;42.09;101408.73;112465;1245;19506;-84
2022/03/07 05:27:05;;;;;;;;;16.00;14.00;;;;;21.38;42.25;101405.41;112556;1245;21369;-84
2022/03/07 05:29:31;;;;;;;;;20.00;16.00;;;;;21.38;42.39;101404.64;112614;1245;19250;-85
2022/03/07 05:31:57;;;;;;;;;16.00;14.00;;;;;21.39;42.20;101401.14;112627;1244;22811;-84
2022/03/07 05:34:23;;;;;;;;;17.00;14.50;;;;;21.39;42.05;101400.94;112595;1244;20058;-85
2022/03/07 05:36:49;;;;;;;;;13.00;12.00;;;;;21.39;42.11;101395.55;112602;1245;20391;-85
2022/03/07 05:39:15;;;;;;;;;14.00;13.50;;;;;21.40;42.24;101401.90;112640;1245;19764;-85
2022/03/07 05:41:41;;;;;;;;;16.00;14.00;;;;;21.38;42.17;101398.02;112528;1245;20374;-85
2022/03/07 05:44:07;;;;;;;;;13.00;12.50;;;;;21.40;42.33;101397.35;112621;1245;19172;-86
2022/03/07 05:46:33;;;;;;;;;16.50;15.00;;;;;21.40;42.05;101394.46;112628;1245;23548;-85
2022/03/07 05:48:59;;;;;;;;;16.00;13.00;;;;;21.40;42.26;101392.45;112568;1244;20010;-85
2022/03/07 05:51:25;;;;;;;;;13.00;13.00;;;;;21.41;42.28;101388.57;112625;1244;19205;-88
2022/03/07 05:53:51;;;;;;;;;17.00;13.00;;;;;21.41;42.17;101385.85;112442;1245;23319;-85
2022/03/07 05:56:16;;;;;;;;;12.50;10.00;;;;;21.41;42.09;101384.24;112615;1244;22288;-85
2022/03/07 05:58:42;;;;;;;;;15.50;13.00;;;;;21.41;42.30;101382.95;112580;1244;21945;-86
2022/03/07 06:01:08;;;;;;;;;15.00;14.00;;;;;21.42;42.18;101382.65;112566;1244;19397;-86
2022/03/07 06:03:34;;;;;;;;;16.50;12.50;;;;;21.43;42.22;101383.30;112608;1245;20211;-85
2022/03/07 06:06:00;;;;;;;;;12.50;12.50;;;;;21.43;42.16;101382.20;112608;1245;19117;-85
2022/03/07 06:08:26;;;;;;;;;13.50;12.50;;;;;21.44;42.09;101388.10;112597;1244;19777;-85
2022/03/07 06:10:52;;;;;;;;;14.00;13.00;;;;;21.43;41.96;101389.61;112590;1244;22973;-85
2022/03/07 06:13:19;;;;;;;;;12.50;12.50;;;;;21.43;42.07;101386.13;112601;1244;19075;-85
2022/03/07 06:15:45;;;;;;;;;13.00;13.00;;;;;21.42;42.07;101386.95;112423;1246;20021;-84
2022/03/07 06:18:11;;;;;;;;;15.00;13.00;;;;;21.44;41.88;101385.52;112427;1245;20049;-85
2022/03/07 06:20:37;;;;;;;;;14.00;14.00;;;;;21.41;42.10;101379.63;112569;1244;19398;-85
2022/03/07 06:23:04;;;;;;;;;13.00;12.00;;;;;21.41;42.11;101378.63;112616;1245;19371;-84
2022/03/07 06:25:30;;;;;;;;;20.67;14.00;;;;;21.43;42.19;101379.11;112465;1245;20294;-88
2022/03/07 06:27:56;;;;;;;;;16.00;14.00;;;;;21.43;42.15;101378.23;112631;1245;19021;-84
2022/03/07 06:30:22;;;;;;;;;14.00;12.50;;;;;21.43;42.23;101377.78;112631;1245;19548;-87
2022/03/07 06:32:48;;;;;;;;;12.00;11.00;;;;;21.46;42.12;101378.93;112593;1244;21958;-89
2022/03/07 06:35:14;;;;;;;;;13.50;13.00;;;;;21.48;42.29;101374.83;112697;1245;19075;-88
2022/03/07 06:37:40;;;;;;;;;13.00;12.00;;;;;21.52;42.34;101378.27;112651;1245;19379;-89
2022/03/07 06:40:06;;;;;;;;;14.00;14.00;;;;;21.59;42.50;101381.54;112690;1244;20002;-88
2022/03/07 06:42:32;;;;;;;;;14.50;12.50;;;;;21.63;42.73;101385.42;112854;1245;19064;-90
2022/03/07 06:44:58;;;;;;;;;13.00;12.33;;;;;21.66;42.72;101385.10;112816;1245;20198;-91
2022/03/07 06:47:24;;;;;;;;;14.00;14.00;;;;;21.71;43.14;101390.71;112621;1245;22649;-88
2022/03/07 06:49:55;;;;;;;;;17.00;14.00;;;;;21.74;43.31;101397.65;112643;1245;19488;-89
2022/03/07 06:52:21;;;;;;;;;14.00;14.00;;;;;21.74;43.69;101400.35;112567;1245;20802;-89
2022/03/07 06:54:47;;;;;;;;;15.00;14.00;;;;;21.81;43.77;101404.61;112598;1245;21786;-88
2022/03/07 06:57:13;;;;;;;;;13.50;13.00;;;;;21.82;43.48;101400.09;112713;1245;20035;-89
2022/03/07 06:59:39;;;;;;;;;13.00;13.00;;;;;21.79;43.98;101411.66;112569;1245;22164;-88
2022/03/07 07:02:05;;;;;;;;;16.00;13.00;;;;;21.79;44.19;101415.14;112577;1245;20007;-88
2022/03/07 07:04:31;;;;;;;;;14.00;13.00;;;;;21.76;44.46;101410.39;112674;1245;19578;-92
2022/03/07 07:06:57;;;;;;;;;13.00;12.50;;;;;21.80;45.00;101418.14;112545;1245;23462;-86
2022/03/07 07:09:23;;;;;;;;;15.50;12.50;;;;;21.83;44.97;101419.96;112699;1244;21526;-87
2022/03/07 07:11:49;;;;;;;;;15.00;14.00;;;;;21.83;45.11;101417.73;112602;1245;19033;-90
2022/03/07 07:14:14;;;;;;;;;12.50;12.00;;;;;21.82;45.33;101417.88;112708;1245;19290;-89
2022/03/07 07:16:40;;;;;;;;;16.00;14.00;;;;;21.79;45.38;101417.11;112761;1243;21548;-91
2022/03/07 07:19:07;;;;;;;;;10.67;10.67;;;;;21.75;45.16;101419.59;112585;1245;19212;-87
2022/03/07 07:21:33;;;;;;;;;17.00;14.00;;;;;21.74;45.16;101422.63;112626;1245;21708;-89
2022/03/07 07:23:59;;;;;;;;;16.00;14.00;;;;;21.78;44.69;101420.35;112657;1244;20027;-88
2022/03/07 07:26:25;;;;;;;;;20.00;17.00;;;;;21.83;44.90;101425.10;112702;1245;19066;-91
2022/03/07 07:28:51;;;;;;;;;17.00;16.67;;;;;21.83;45.15;101421.46;112590;1244;19497;-90
2022/03/07 07:31:17;;;;;;;;;25.00;19.00;;;;;21.83;45.22;101418.90;112584;1245;20143;-89
2022/03/07 07:33:44;;;;;;;;;21.50;17.00;;;;;21.81;44.81;101418.95;112591;1245;19134;-89
2022/03/07 07:36:09;;;;;;;;;29.00;21.67;;;;;21.80;44.78;101418.48;112599;1244;19515;-90
2022/03/07 07:38:35;;;;;;;;;24.00;20.50;;;;;21.81;44.55;101418.61;112603;1245;19838;-90
2022/03/07 07:41:01;;;;;;;;;21.00;20.00;;;;;21.79;45.00;101423.49;112655;1245;23440;-90
2022/03/07 07:43:27;;;;;;;;;19.00;17.00;;;;;21.78;44.74;101420.19;112565;1244;19490;-89
2022/03/07 07:45:53;;;;;;;;;24.50;20.50;;;;;21.78;44.87;101418.02;112608;1244;20200;-89
2022/03/07 07:51:19;;;;;;;;;25.00;21.00;;;;;21.75;45.14;101415.80;112764;1245;21018;-90
2022/03/07 07:53:45;;;;;;;;;26.00;24.67;;;;;21.79;44.89;101414.25;112713;1245;23094;-87
2022/03/07 07:56:11;;;;;;;;;28.00;24.33;;;;;21.83;44.86;101407.44;112613;1245;22276;-89
2022/03/07 07:58:37;;;;;;;;;29.00;25.00;;;;;21.85;44.77;101407.16;112595;1244;19740;-91
2022/03/07 08:01:03;;;;;;;;;32.00;27.00;;;;;21.87;44.74;101408.56;112588;1245;23745;-87
2022/03/07 08:03:29;;;;;;;;;26.00;24.50;;;;;21.92;44.86;101409.19;112621;1245;19141;-86
2022/03/07 08:05:55;;;;;;;;;25.00;22.00;;;;;21.96;44.84;101411.11;112624;1244;19229;-90
2022/03/07 08:08:21;;;;;;;;;22.33;20.33;;;;;21.94;44.93;101403.13;112851;1245;20882;-93
2022/03/07 08:10:47;;;;;;;;;22.00;19.00;;;;;22.06;44.77;101406.48;112783;1245;19920;-92
2022/03/07 08:13:13;;;;;;;;;21.50;21.00;;;;;22.05;44.30;101403.54;112855;1245;22646;-90
2022/03/07 08:15:40;;;;;;;;;26.00;22.50;;;;;22.04;43.44;101403.09;112698;1244;20150;-89
2022/03/07 08:18:06;;;;;;;;;21.50;19.00;;;;;22.10;43.39;101398.81;112712;1244;19221;-88
2022/03/07 08:20:32;;;;;;;;;24.00;20.50;;;;;22.14;43.56;101398.94;112646;1245;19266;-88
2022/03/07 08:22:58;;;;;;;;;26.00;22.00;;;;;22.19;43.68;101399.66;112652;1244;23216;-88
2022/03/07 08:25:24;;;;;;;;;25.33;23.00;;;;;22.20;42.90;101396.89;112585;1244;19323;-88
2022/03/07 08:27:50;;;;;;;;;27.00;23.00;;;;;22.23;42.86;101397.10;112750;1245;19684;-89
2022/03/07 08:30:16;;;;;;;;;27.00;23.00;;;;;22.26;42.88;101396.99;112814;1245;20849;-90
2022/03/07 08:32:42;;;;;;;;;23.00;23.00;;;;;22.39;42.82;101394.15;112763;1245;19108;-88
2022/03/07 08:35:08;;;;;;;;;25.50;22.00;;;;;22.47;42.94;101395.41;112571;1244;24432;-87
2022/03/07 08:37:34;;;;;;;;;21.00;19.00;;;;;22.48;42.91;101396.73;112656;1245;22385;-84
2022/03/07 08:39:59;;;;;;;;;22.50;21.00;;;;;22.53;42.61;101391.52;112667;1245;23501;-86
2022/03/07 08:42:25;;;;;;;;;22.50;19.00;;;;;22.55;42.56;101392.84;112909;1245;19512;-86
2022/03/07 08:44:52;;;;;;;;;23.00;22.00;;;;;22.56;42.85;101397.27;112726;1245;20512;-85
2022/03/07 08:47:18;;;;;;;;;19.67;19.00;;;;;22.61;42.94;101393.14;112566;1245;19493;-85
2022/03/07 08:49:44;;;;;;;;;24.00;22.00;;;;;22.64;42.76;101392.60;112608;1245;19196;-86
2022/03/07 08:52:10;;;;;;;;;21.00;18.50;;;;;22.65;42.72;101387.88;112445;1244;20117;-82
2022/03/07 08:54:36;;;;;;;;;22.00;21.00;;;;;22.67;42.78;101387.32;112513;1245;22549;-85
2022/03/07 08:57:02;;;;;;;;;20.00;19.00;;;;;22.67;42.69;101389.20;112591;1245;19429;-87
2022/03/07 08:59:28;;;;;;;;;19.50;19.00;;;;;22.73;42.89;101386.82;112607;1245;20175;-86
2022/03/07 09:01:54;;;;;;;;;20.33;18.67;;;;;22.75;42.73;101387.73;112591;1245;19362;-87
2022/03/07 09:04:20;;;;;;;;;21.00;20.00;;;;;22.70;42.60;101387.23;112600;1244;21154;-88
2022/03/07 09:06:46;;;;;;;;;23.00;18.50;;;;;22.66;42.49;101385.30;112647;1244;20118;-85
2022/03/07 09:09:12;;;;;;;;;21.50;20.00;;;;;22.62;42.30;101387.73;112590;1244;19246;-84
2022/03/07 09:11:38;;;;;;;;;22.00;22.00;;;;;22.65;42.84;101387.50;112585;1245;19297;-85
2022/03/07 09:14:04;;;;;;;;;24.00;20.50;;;;;22.73;42.93;101391.95;112622;1245;20063;-86
2022/03/07 09:16:30;;;;;;;;;26.00;23.00;;;;;22.78;42.84;101390.48;112611;1245;23669;-85
2022/03/07 09:18:56;;;;;;;;;18.67;17.00;;;;;22.81;42.69;101386.11;112611;1245;19491;-86
2022/03/07 09:21:22;;;;;;;;;18.00;18.00;;;;;22.84;42.62;101391.38;112631;1245;20119;-85
2022/03/07 09:23:48;;;;;;;;;20.00;18.00;;;;;22.80;41.52;101389.91;112637;1245;19202;-88
2022/03/07 09:26:14;;;;;;;;;24.00;23.00;;;;;22.71;41.19;101388.73;113172;1244;19815;-85
2022/03/07 09:28:40;;;;;;;;;23.00;19.50;;;;;22.69;40.99;101389.13;112637;1244;20221;-86
2022/03/07 09:31:07;;;;;;;;;21.50;20.00;;;;;22.69;40.97;101393.29;112602;1244;19001;-85
2022/03/07 09:33:33;;;;;;;;;22.00;18.00;;;;;22.68;41.38;101388.70;112613;1245;22790;-85
2022/03/07 09:35:59;;;;;;;;;19.50;18.00;;;;;22.69;41.54;101391.52;112584;1243;20025;-86
2022/03/07 09:38:27;;;;;;;;;19.00;18.50;;;;;22.67;41.67;101388.95;112597;1245;19040;-85
2022/03/07 09:40:53;;;;;;;;;19.67;19.33;;;;;22.67;41.92;101391.55;112647;1245;20875;-86
2022/03/07 09:43:19;;;;;;;;;18.00;18.00;;;;;22.61;41.87;101389.80;112649;1243;19998;-86
2022/03/07 09:45:45;;;;;;;;;22.00;19.50;;;;;22.56;41.86;101389.28;112656;1244;19005;-86
2022/03/07 09:48:11;;;;;;;;;19.50;18.50;;;;;22.52;42.04;101393.05;112639;1245;22793;-87
2022/03/07 09:50:37;;;;;;;;;20.50;18.50;;;;;22.50;42.32;101396.02;112647;1245;23858;-90
2022/03/07 09:53:03;;;;;;;;;17.67;15.00;;;;;22.48;42.16;101392.73;112631;1244;20973;-88
2022/03/07 09:55:30;;;;;;;;;21.50;19.00;;;;;22.24;40.52;101391.11;112626;1245;20190;-88
2022/03/07 09:57:56;;;;;;;;;48.67;40.67;;;;;21.86;38.46;101390.94;112537;1245;20249;-86
2022/03/07 10:00:22;;;;;;;;;37.00;30.67;;;;;21.71;36.24;101395.13;112573;1244;19127;-88
2022/03/07 10:02:48;;;;;;;;;26.50;25.00;;;;;21.61;34.83;101392.14;112533;1244;19733;-88
2022/03/07 10:05:14;;;;;;;;;25.50;23.00;;;;;21.53;33.70;101387.45;112510;1245;21435;-86
2022/03/07 10:07:40;;;;;;;;;26.00;21.50;;;;;21.46;32.71;101386.91;112449;1245;19048;-87
2022/03/07 10:10:05;;;;;;;;;28.00;25.00;;;;;21.43;32.30;101386.30;112650;1245;22298;-87
2022/03/07 10:12:31;;;;;;;;;37.00;33.00;;;;;21.45;31.57;101389.64;112644;1244;23187;-87
2022/03/07 10:14:57;;;;;;;;;28.00;26.00;;;;;21.41;31.30;101389.27;112534;1244;19017;-86
2022/03/07 10:17:24;;;;;;;;;22.00;21.00;;;;;21.41;31.49;101385.88;112563;1245;20499;-87
2022/03/07 10:19:51;;;;;;;;;29.00;26.33;;;;;21.38;30.76;101385.23;112572;1244;20328;-87
2022/03/07 10:22:19;;;;;;;;;26.00;20.50;;;;;21.32;30.33;101382.74;112588;1245;22157;-87
2022/03/07 10:24:45;;;;;;;;;21.00;19.00;;;;;21.33;30.23;101382.52;112619;1245;19458;-87
2022/03/07 10:27:11;;;;;;;;;25.00;20.50;;;;;21.29;29.58;101378.40;112573;1245;20613;-87
2022/03/07 10:29:36;;;;;;;;;21.00;18.00;;;;;21.03;30.00;101387.85;112634;1244;18953;-87
2022/03/07 10:32:02;;;;;;;;;20.00;20.00;;;;;20.92;29.06;101384.85;112505;1245;19176;-86
2022/03/07 10:34:28;;;;;;;;;24.00;22.50;;;;;20.98;28.99;101382.74;112488;1245;20203;-85
2022/03/07 10:36:54;;;;;;;;;24.00;21.00;;;;;21.04;29.70;101381.95;112606;1245;19505;-87
2022/03/07 10:39:22;;;;;;;;;18.00;17.50;;;;;21.26;30.61;101375.20;112594;1245;19383;-87
2022/03/07 10:41:48;;;;;;;;;27.50;22.00;;;;;21.46;32.05;101378.93;112610;1244;20247;-86
2022/03/07 10:44:14;;;;;;;;;21.50;21.00;;;;;21.55;31.72;101372.31;112460;1245;21290;-86
2022/03/07 10:46:41;;;;;;;;;20.00;16.50;;;;;21.52;30.93;101375.04;112648;1245;19278;-87
2022/03/07 10:49:07;;;;;;;;;21.33;19.67;;;;;21.33;30.32;101379.97;112594;1245;23238;-86
2022/03/07 10:51:33;;;;;;;;;17.00;17.00;;;;;21.12;30.04;101373.64;112835;1245;22083;-87
2022/03/07 10:53:59;;;;;;;;;21.00;18.50;;;;;21.06;29.77;101369.02;112707;1245;19844;-87
2022/03/07 10:56:25;;;;;;;;;17.50;16.00;;;;;21.03;29.82;101367.67;112581;1245;22394;-88
2022/03/07 10:58:52;;;;;;;;;17.00;17.00;;;;;21.00;29.72;101367.64;112434;1245;22856;-85